Time;durP1;ratioP1;P1;durP2;ratioP2;P2;SDS_P1;SDS_P2;PMS_P1;PMS_P2;Temp;Humidity;BMP_temperature;BMP_pressure;BME280_temperature;BME280_humidity;BME280_pressure;Samples;Min_cycle;Max_cycle;Signal;HPM_P1;HPM_P2
2021/12/25 00:01:20;;;;;;;10.13;6.28;;;;;;;5.81;62.62;99836.97;5041928;28;20044;-70
2021/12/25 00:03:50;;;;;;;10.95;6.78;;;;;;;5.93;62.85;99844.88;5042952;28;20037;-73
2021/12/25 00:06:16;;;;;;;9.65;7.00;;;;;;;5.72;63.32;99848.16;5045200;28;20492;-69
2021/12/25 00:08:42;;;;;;;8.32;5.82;;;;;;;5.90;62.89;99849.22;5037645;28;20064;-72
2021/12/25 00:11:08;;;;;;;8.32;5.75;;;;;;;5.70;63.48;99851.59;5041037;28;20456;-69
2021/12/25 00:13:42;;;;;;;9.13;6.32;;;;;;;5.71;63.62;99861.13;5040484;28;22481;-68
2021/12/25 00:16:08;;;;;;;9.98;6.03;;;;;;;5.95;63.18;99868.38;5042043;28;20033;-69
2021/12/25 00:18:35;;;;;;;7.65;5.38;;;;;;;5.89;62.69;99837.91;5027635;28;20267;-72
2021/12/25 00:21:00;;;;;;;11.05;6.82;;;;;;;5.93;63.15;99852.69;5028737;28;20169;-70
2021/12/25 00:23:26;;;;;;;9.15;6.35;;;;;;;5.97;62.95;99858.84;5026951;28;20071;-71
2021/12/25 00:25:58;;;;;;;9.30;6.45;;;;;;;5.81;63.10;99839.56;5029059;28;20128;-69
2021/12/25 00:33:50;;;;;;;17.92;6.38;;;;;;;6.04;63.14;99878.00;5007838;27;22430;-68
2021/12/25 00:36:19;;;;;;;7.95;5.72;;;;;;;5.96;62.91;99851.03;4992224;28;20145;-68
2021/12/25 00:38:46;;;;;;;13.43;6.82;;;;;;;5.99;62.91;99861.47;4990725;28;20080;-68
2021/12/25 00:43:23;;;;;;;10.07;6.22;;;;;;;6.11;63.00;99870.28;5052388;27;20613;-69
2021/12/25 00:45:49;;;;;;;9.45;6.75;;;;;;;6.02;63.02;99856.28;5017404;28;20469;-68
2021/12/25 00:48:15;;;;;;;9.70;7.22;;;;;;;6.05;63.20;99883.22;5016670;28;20457;-69
2021/12/25 00:50:40;;;;;;;9.50;6.18;;;;;;;6.05;63.07;99871.94;5016426;28;20104;-69
2021/12/25 00:53:06;;;;;;;10.07;5.85;;;;;;;6.04;62.96;99872.78;5016939;28;20040;-69
2021/12/25 00:55:32;;;;;;;10.20;7.05;;;;;;;5.89;63.60;99857.84;5015753;28;20038;-69
2021/12/25 00:57:57;;;;;;;7.78;5.60;;;;;;;5.95;63.56;99851.84;5016812;28;20042;-70
2021/12/25 01:00:23;;;;;;;9.23;6.18;;;;;;;6.21;63.15;99876.44;4996567;28;20143;-69
2021/12/25 01:02:50;;;;;;;10.05;6.32;;;;;;;6.00;63.29;99858.88;5025547;28;20539;-68
2021/12/25 01:05:17;;;;;;;6.95;5.35;;;;;;;5.84;63.75;99842.19;5015718;28;20148;-71
2021/12/25 01:07:43;;;;;;;11.63;5.22;;;;;;;5.90;63.48;99850.06;5017774;28;20052;-72
2021/12/25 01:10:14;;;;;;;8.05;6.20;;;;;;;5.89;64.00;99853.53;5018478;28;20400;-69
2021/12/25 01:15:37;;;;;;;12.30;6.25;;;;;;;5.89;63.83;99863.94;5015903;28;20060;-70
2021/12/25 01:18:38;;;;;;;12.52;6.30;;;;;;;5.72;64.38;99840.34;5016052;28;20092;-69
2021/12/25 01:36:40;;;;;;;9.82;5.63;;;;;;;5.79;64.10;99835.22;5012955;28;20052;-70
2021/12/25 01:39:22;;;;;;;8.10;5.55;;;;;;;5.92;64.18;99848.38;5013837;28;20045;-69
2021/12/25 01:49:47;;;;;;;11.10;6.03;;;;;;;5.90;64.87;99846.59;4987719;28;20057;-69
2021/12/25 01:52:13;;;;;;;10.93;6.97;;;;;;;6.00;64.41;99840.66;4997151;28;20047;-70
2021/12/25 01:54:38;;;;;;;11.68;5.80;;;;;;;6.00;64.33;99830.22;4984515;28;20038;-70
2021/12/25 01:57:04;;;;;;;10.40;5.75;;;;;;;6.02;64.77;99843.28;4997071;28;20053;-70
2021/12/25 01:59:30;;;;;;;10.90;6.55;;;;;;;6.01;64.65;99831.97;5002248;28;20463;-69
2021/12/25 02:01:55;;;;;;;9.48;6.32;;;;;;;6.14;64.66;99845.97;5002610;28;20050;-69
2021/12/25 02:04:21;;;;;;;9.00;5.70;;;;;;;6.06;64.21;99825.09;5002411;28;20528;-70
2021/12/25 02:06:46;;;;;;;9.15;6.13;;;;;;;5.99;64.88;99823.25;5005056;28;20440;-69
2021/12/25 02:09:12;;;;;;;13.10;6.60;;;;;;;6.00;65.11;99825.03;4990131;28;20049;-69
2021/12/25 02:11:37;;;;;;;8.75;5.25;;;;;;;6.26;64.66;99842.59;4995288;28;20421;-69
2021/12/25 02:14:04;;;;;;;11.95;5.85;;;;;;;6.15;64.61;99824.28;5001871;28;20099;-68
2021/12/25 02:16:39;;;;;;;8.90;6.65;;;;;;;6.11;64.48;99822.50;5017573;28;20050;-70
2021/12/25 02:19:14;;;;;;;12.70;6.22;;;;;;;6.08;65.28;99820.75;5001056;28;20030;-69
2021/12/25 02:21:40;;;;;;;10.70;6.55;;;;;;;6.23;64.80;99830.44;5004018;28;20042;-70
2021/12/25 02:24:09;;;;;;;8.40;5.18;;;;;;;6.19;64.47;99825.19;5003309;28;20125;-69
2021/12/25 02:26:37;;;;;;;9.85;6.68;;;;;;;6.22;64.90;99843.44;5003876;28;20137;-70
2021/12/25 02:29:03;;;;;;;10.02;6.32;;;;;;;6.05;64.84;99815.50;5000546;28;20045;-70
2021/12/25 02:31:29;;;;;;;11.30;6.50;;;;;;;6.23;64.63;99829.56;4998999;28;20058;-70
2021/12/25 02:33:55;;;;;;;8.23;4.97;;;;;;;6.13;64.49;99821.69;5000956;28;20037;-70
2021/12/25 02:36:20;;;;;;;9.95;5.43;;;;;;;6.07;64.58;99805.97;5003622;28;20041;-68
2021/12/25 02:38:47;;;;;;;6.78;5.20;;;;;;;6.25;64.89;99835.63;5005074;28;20049;-68
2021/12/25 02:41:13;;;;;;;13.10;6.88;;;;;;;6.19;64.49;99802.59;5001543;28;20136;-68
2021/12/25 02:43:39;;;;;;;7.40;5.57;;;;;;;6.22;64.52;99820.00;5001438;28;21004;-69
2021/12/25 02:46:06;;;;;;;7.65;5.88;;;;;;;6.02;65.16;99814.63;5000740;28;20771;-68
2021/12/25 02:48:36;;;;;;;7.82;5.07;;;;;;;6.01;65.15;99803.31;5001359;28;20045;-71
2021/12/25 02:51:02;;;;;;;10.18;5.95;;;;;;;5.98;65.29;99808.50;5001698;28;20045;-68
2021/12/25 02:53:27;;;;;;;8.80;4.88;;;;;;;6.01;65.17;99818.94;5003980;28;20474;-70
2021/12/25 02:55:53;;;;;;;13.00;5.85;;;;;;;5.88;65.37;99794.50;5003552;28;20060;-73
2021/12/25 02:58:19;;;;;;;7.68;5.10;;;;;;;5.89;65.58;99816.19;5003735;28;20116;-70
2021/12/25 03:00:53;;;;;;;6.65;4.65;;;;;;;5.92;65.15;99808.41;4982244;28;20635;-72
2021/12/25 03:03:19;;;;;;;11.57;6.25;;;;;;;5.80;65.56;99805.69;4980608;28;20038;-68
2021/12/25 03:05:45;;;;;;;7.03;5.28;;;;;;;5.94;65.44;99811.94;4982703;28;20054;-73
2021/12/25 03:08:12;;;;;;;7.75;4.93;;;;;;;5.98;65.73;99823.28;4982902;28;20438;-70
2021/12/25 03:10:39;;;;;;;9.75;5.38;;;;;;;6.08;65.33;99825.94;4985004;28;20049;-69
2021/12/25 03:15:46;;;;;;;8.18;4.60;;;;;;;6.08;65.04;99819.88;5000809;28;20416;-69
2021/12/25 03:18:36;;;;;;;9.93;5.72;;;;;;;6.14;65.32;99848.59;5004270;28;20046;-69
2021/12/25 03:21:04;;;;;;;12.88;5.88;;;;;;;5.93;65.34;99842.28;5001406;28;20061;-69
2021/12/25 03:23:32;;;;;;;7.68;5.05;;;;;;;5.89;66.01;99844.84;5001879;28;20053;-71
2021/12/25 03:25:59;;;;;;;8.63;5.85;;;;;;;6.09;65.39;99853.75;4996668;28;20043;-68
2021/12/25 03:28:31;;;;;;;7.22;5.28;;;;;;;5.96;65.81;99861.44;4981836;28;20122;-70
2021/12/25 03:31:00;;;;;;;8.20;5.53;;;;;;;5.91;65.96;99861.34;4982445;28;20485;-68
2021/12/25 03:33:27;;;;;;;11.40;5.85;;;;;;;5.67;66.44;99839.44;4982541;28;20061;-69
2021/12/25 03:35:52;;;;;;;6.18;4.60;;;;;;;5.72;66.12;99832.53;4995120;28;20054;-69
2021/12/25 03:38:22;;;;;;;9.40;4.93;;;;;;;5.72;66.23;99836.88;4999974;28;20140;-69
2021/12/25 03:40:49;;;;;;;9.57;5.70;;;;;;;5.73;66.35;99843.81;4999531;28;20067;-69
2021/12/25 03:43:15;;;;;;;7.05;5.25;;;;;;;5.80;66.17;99837.81;4996715;28;22003;-69
2021/12/25 03:45:40;;;;;;;7.13;5.68;;;;;;;5.72;66.92;99844.69;4980762;28;20053;-69
2021/12/25 03:48:29;;;;;;;8.80;5.93;;;;;;;5.77;66.93;99836.91;4984377;28;20050;-69
2021/12/25 03:59:01;;;;;;;10.48;5.95;;;;;;;5.63;66.74;99844.59;5000438;28;20529;-70
2021/12/25 04:01:43;;;;;;;9.15;5.82;;;;;;;5.70;66.71;99841.19;5002155;28;20235;-68
2021/12/25 04:04:22;;;;;;;8.73;6.72;;;;;;;5.74;66.97;99863.78;4984823;28;20079;-68
2021/12/25 04:07:00;;;;;;;10.43;5.93;;;;;;;5.55;66.86;99854.91;4987928;28;20030;-69
2021/12/25 04:09:29;;;;;;;14.02;6.68;;;;;;;5.51;66.88;99858.34;4999191;28;20056;-69
2021/12/25 04:11:58;;;;;;;8.25;5.45;;;;;;;5.58;67.29;99861.88;4999198;28;20077;-71
2021/12/25 04:14:25;;;;;;;11.60;5.65;;;;;;;5.46;67.38;99855.69;4988256;28;20125;-69
2021/12/25 04:16:50;;;;;;;7.57;5.85;;;;;;;5.58;66.98;99854.06;4984683;28;20050;-69
2021/12/25 04:19:17;;;;;;;8.52;6.18;;;;;;;5.75;66.83;99860.31;4999169;28;20030;-70
2021/12/25 04:22:02;;;;;;;7.55;5.70;;;;;;;5.76;66.50;99858.59;4996696;28;20048;-70
2021/12/25 04:24:31;;;;;;;8.35;5.95;;;;;;;5.82;66.50;99871.69;4997952;28;20409;-69
2021/12/25 04:26:57;;;;;;;8.50;5.03;;;;;;;5.69;66.74;99870.69;5001695;28;20446;-68
2021/12/25 04:29:39;;;;;;;9.38;6.50;;;;;;;5.50;67.25;99865.28;4999269;28;20061;-71
2021/12/25 05:04:46;;;;;;;9.35;5.82;;;;;;;5.74;67.01;99891.56;4999291;28;20100;-69
2021/12/25 05:07:13;;;;;;;11.23;5.65;;;;;;;5.69;67.08;99897.59;4996921;28;20476;-69
2021/12/25 05:09:39;;;;;;;8.50;6.18;;;;;;;5.65;67.46;99905.34;5000006;28;20179;-71
2021/12/25 05:12:05;;;;;;;10.15;6.55;;;;;;;5.80;67.30;99922.84;4998719;28;20050;-69
2021/12/25 05:14:31;;;;;;;8.38;5.40;;;;;;;5.65;67.50;99906.19;5000121;28;20042;-70
2021/12/25 05:16:56;;;;;;;8.32;5.97;;;;;;;5.85;66.99;99924.66;5000753;28;20057;-69
2021/12/25 05:19:22;;;;;;;9.40;6.03;;;;;;;5.72;67.07;99914.97;5002125;28;20504;-69
2021/12/25 05:21:47;;;;;;;8.80;6.40;;;;;;;5.86;67.04;99933.34;4998694;28;20188;-69
2021/12/25 05:24:13;;;;;;;10.27;5.88;;;;;;;5.76;67.13;99900.22;5000138;28;20064;-70
2021/12/25 05:26:39;;;;;;;9.75;6.38;;;;;;;5.75;67.42;99909.78;4997665;28;20505;-70
2021/12/25 05:29:05;;;;;;;10.68;5.15;;;;;;;5.58;67.54;99898.31;4996975;28;20049;-69
2021/12/25 05:31:34;;;;;;;9.70;6.70;;;;;;;5.56;67.69;99913.91;5001737;28;20128;-68
2021/12/25 05:33:59;;;;;;;13.07;7.20;;;;;;;5.69;67.46;99920.13;5002432;28;20034;-69
2021/12/25 05:36:27;;;;;;;9.93;6.28;;;;;;;5.70;67.63;99906.25;5017271;28;20486;-68
2021/12/25 05:38:58;;;;;;;11.73;6.10;;;;;;;5.76;67.96;99940.19;5004321;28;20127;-69
2021/12/25 05:41:29;;;;;;;8.63;5.50;;;;;;;5.71;67.69;99937.53;5003380;28;20050;-70
2021/12/25 05:43:54;;;;;;;17.38;8.75;;;;;;;5.76;67.59;99947.09;5019657;28;20050;-68
2021/12/25 05:46:20;;;;;;;15.77;8.73;;;;;;;5.79;67.27;99931.53;5002041;28;20051;-70
2021/12/25 05:48:48;;;;;;;8.57;5.80;;;;;;;5.69;67.68;99921.00;5002481;28;20029;-69
2021/12/25 05:51:14;;;;;;;8.43;6.95;;;;;;;5.71;67.46;99915.78;5001700;28;20500;-69
2021/12/25 05:53:40;;;;;;;12.13;7.10;;;;;;;5.77;67.39;99944.50;4989837;28;20047;-69
2021/12/25 05:56:05;;;;;;;8.77;6.32;;;;;;;5.81;67.58;99927.22;4984189;28;20502;-68
2021/12/25 05:58:31;;;;;;;12.88;6.60;;;;;;;5.89;67.20;99939.44;4992885;28;20053;-69
2021/12/25 06:00:57;;;;;;;21.95;9.45;;;;;;;5.83;67.59;99961.94;5000880;28;20033;-69
2021/12/25 06:03:22;;;;;;;9.50;5.65;;;;;;;5.69;67.75;99941.84;5003433;28;20176;-68
2021/12/25 06:05:48;;;;;;;8.15;6.18;;;;;;;5.86;67.65;99965.44;5004269;28;20888;-68
2021/12/25 06:08:14;;;;;;;11.05;6.28;;;;;;;5.71;67.97;99945.34;5004198;28;20108;-70
2021/12/25 06:10:41;;;;;;;9.48;6.18;;;;;;;5.66;68.02;99933.97;5000988;28;20042;-68
2021/12/25 06:13:09;;;;;;;18.20;6.60;;;;;;;5.65;68.44;99946.97;4988278;28;20045;-69
2021/12/25 06:15:36;;;;;;;10.10;6.05;;;;;;;5.54;68.61;99949.44;5002428;28;20089;-70
2021/12/25 06:18:02;;;;;;;12.55;6.20;;;;;;;5.74;68.60;99961.84;5001802;28;20045;-68
2021/12/25 06:20:28;;;;;;;10.23;6.43;;;;;;;5.54;68.66;99953.78;5001493;28;20071;-67
2021/12/25 06:22:54;;;;;;;9.82;6.43;;;;;;;5.68;68.18;99960.88;5000611;28;20058;-70
2021/12/25 06:25:19;;;;;;;9.45;5.50;;;;;;;5.57;68.64;99970.31;5018442;28;20045;-68
2021/12/25 06:27:45;;;;;;;10.85;5.63;;;;;;;5.80;68.61;99978.38;5000533;28;20422;-68
2021/12/25 06:30:13;;;;;;;13.38;5.97;;;;;;;5.62;68.61;99960.84;4969701;28;20502;-68
2021/12/25 06:32:38;;;;;;;10.20;5.13;;;;;;;5.61;68.86;99973.81;4985849;28;20053;-67
2021/12/25 06:35:05;;;;;;;11.15;6.20;;;;;;;5.61;68.85;99976.41;4987645;28;20547;-68
2021/12/25 06:37:31;;;;;;;13.35;6.00;;;;;;;5.94;68.21;99983.78;5002112;28;20050;-69
2021/12/25 06:39:56;;;;;;;10.32;5.28;;;;;;;5.73;68.50;99971.34;5001779;28;20383;-70
2021/12/25 06:42:22;;;;;;;10.23;6.30;;;;;;;5.67;68.56;99968.69;4999214;28;20413;-68
2021/12/25 06:44:47;;;;;;;9.00;5.95;;;;;;;5.83;68.31;99970.63;5000652;28;20052;-71
2021/12/25 06:47:13;;;;;;;7.10;4.82;;;;;;;5.97;68.22;99978.66;5000806;28;20057;-70
2021/12/25 06:49:38;;;;;;;9.30;6.05;;;;;;;6.04;68.46;99990.88;4999623;28;20101;-69
2021/12/25 06:52:04;;;;;;;9.55;5.68;;;;;;;6.05;68.06;99969.16;4999101;28;20870;-68
2021/12/25 06:54:29;;;;;;;8.98;5.95;;;;;;;5.92;68.18;99969.84;4999735;28;20124;-71
2021/12/25 06:56:55;;;;;;;8.35;5.00;;;;;;;6.21;67.97;99998.88;5002113;28;20212;-71
2021/12/25 06:59:23;;;;;;;7.85;5.07;;;;;;;6.19;68.19;99997.97;4999615;28;20037;-68
2021/12/25 07:01:50;;;;;;;9.82;5.68;;;;;;;6.22;67.68;99976.28;5001616;28;20129;-69
2021/12/25 07:04:16;;;;;;;8.25;5.47;;;;;;;6.31;67.24;99974.66;5000301;28;20065;-68
2021/12/25 07:06:41;;;;;;;8.88;5.82;;;;;;;6.36;67.55;99986.84;5003221;28;20044;-70
2021/12/25 07:09:08;;;;;;;10.05;4.95;;;;;;;6.48;67.01;99982.63;4999421;28;20038;-68
2021/12/25 07:11:35;;;;;;;9.13;5.28;;;;;;;6.40;67.34;99986.03;4999000;28;20428;-67
2021/12/25 07:14:03;;;;;;;10.75;4.18;;;;;;;6.57;66.80;99979.25;4997656;28;20120;-70
2021/12/25 07:16:29;;;;;;;8.70;4.72;;;;;;;6.64;66.66;99977.56;5001526;28;20116;-68
2021/12/25 07:18:54;;;;;;;6.45;4.57;;;;;;;6.61;66.44;99986.25;5001462;28;20053;-73
2021/12/25 07:21:20;;;;;;;9.25;4.47;;;;;;;6.60;66.67;99981.88;5001528;28;20528;-70
2021/12/25 07:23:46;;;;;;;8.73;5.60;;;;;;;6.78;66.49;99989.00;5000957;28;20033;-71
2021/12/25 07:26:11;;;;;;;7.88;5.43;;;;;;;7.03;66.08;100010.94;4985811;28;20053;-69
2021/12/25 07:28:37;;;;;;;8.55;5.35;;;;;;;6.96;66.07;100004.78;4998455;28;21311;-68
2021/12/25 07:31:04;;;;;;;10.23;4.90;;;;;;;7.02;65.63;99995.25;5000166;28;20493;-68
2021/12/25 07:33:32;;;;;;;7.13;5.30;;;;;;;7.05;65.42;99992.69;4998002;28;20052;-68
2021/12/25 07:35:58;;;;;;;6.97;5.28;;;;;;;7.08;65.50;99996.19;5000229;28;20053;-69
2021/12/25 07:38:24;;;;;;;11.25;6.00;;;;;;;7.09;65.52;100007.47;4999611;28;20054;-67
2021/12/25 07:40:50;;;;;;;9.38;5.22;;;;;;;7.19;65.05;100011.94;5000943;28;20044;-68
2021/12/25 07:43:17;;;;;;;6.90;5.13;;;;;;;7.26;65.00;100016.31;5002039;28;20054;-69
2021/12/25 07:45:46;;;;;;;7.47;4.90;;;;;;;7.49;64.55;100021.72;5000624;28;20053;-71
2021/12/25 07:48:11;;;;;;;8.05;4.85;;;;;;;7.51;64.39;100013.84;5000091;28;20100;-70
2021/12/25 07:50:37;;;;;;;7.80;4.90;;;;;;;7.42;64.96;100038.16;5001085;28;20050;-68
2021/12/25 07:53:02;;;;;;;7.63;5.15;;;;;;;7.48;64.58;100001.66;4993329;28;20050;-68
2021/12/25 07:55:30;;;;;;;7.20;5.38;;;;;;;7.65;64.52;100034.84;4984566;28;20077;-67
2021/12/25 07:57:56;;;;;;;9.85;6.85;;;;;;;7.47;64.46;100006.88;4978186;28;20053;-68
2021/12/25 08:00:22;;;;;;;8.10;4.88;;;;;;;7.50;64.47;100020.81;4978613;28;20061;-68
2021/12/25 08:02:48;;;;;;;7.82;6.00;;;;;;;7.52;64.60;100013.00;4992497;28;20061;-68
2021/12/25 08:05:14;;;;;;;10.48;5.40;;;;;;;7.69;64.47;100040.09;4999913;28;20052;-68
2021/12/25 08:07:39;;;;;;;9.05;4.97;;;;;;;7.67;64.34;100028.75;4998316;28;20066;-68
2021/12/25 08:10:18;;;;;;;8.57;5.07;;;;;;;7.80;64.33;100038.41;5001896;28;20025;-69
2021/12/25 08:12:47;;;;;;;10.73;5.95;;;;;;;7.85;63.83;100012.31;4980297;28;21183;-69
2021/12/25 08:15:15;;;;;;;12.25;5.25;;;;;;;7.85;63.95;100022.75;4996761;28;20054;-69
2021/12/25 08:17:42;;;;;;;20.27;5.30;;;;;;;7.80;63.97;100017.50;4997822;28;20882;-68
2021/12/25 08:20:09;;;;;;;10.93;5.35;;;;;;;7.85;64.18;100030.59;4999956;28;20046;-68
2021/12/25 08:22:35;;;;;;;9.98;6.22;;;;;;;8.16;63.63;100065.56;4998848;28;20046;-69
2021/12/25 08:25:01;;;;;;;11.23;5.50;;;;;;;8.11;63.39;100054.22;4998606;28;20041;-68
2021/12/25 08:27:26;;;;;;;8.85;5.95;;;;;;;7.89;63.81;100026.25;5008948;28;20141;-67
2021/12/25 08:29:52;;;;;;;8.10;4.38;;;;;;;8.23;63.35;100056.00;4999651;28;20057;-68
2021/12/25 08:32:17;;;;;;;7.78;5.10;;;;;;;8.27;63.18;100049.94;4999365;28;20140;-70
2021/12/25 08:34:44;;;;;;;8.27;5.18;;;;;;;8.29;63.05;100042.97;4998715;28;20078;-69
2021/12/25 08:37:10;;;;;;;8.38;4.90;;;;;;;8.31;63.12;100049.09;4999619;28;20037;-69
2021/12/25 08:39:36;;;;;;;6.70;4.43;;;;;;;8.32;62.92;100047.34;5002236;28;20045;-68
2021/12/25 08:42:04;;;;;;;7.22;4.70;;;;;;;8.45;62.73;100054.34;4990607;28;20411;-70
2021/12/25 08:44:35;;;;;;;9.10;5.30;;;;;;;8.51;62.91;100054.38;4979199;28;20042;-69
2021/12/25 08:47:04;;;;;;;7.88;4.53;;;;;;;8.45;62.88;100044.78;4986453;28;20050;-68
2021/12/25 08:49:32;;;;;;;7.63;5.05;;;;;;;8.41;63.15;100048.25;4998988;28;20045;-69
2021/12/25 08:52:01;;;;;;;8.25;5.28;;;;;;;8.49;62.54;100050.03;4999096;28;20030;-72
2021/12/25 08:54:27;;;;;;;7.90;5.13;;;;;;;8.48;62.79;100069.22;4999553;28;20104;-69
2021/12/25 08:56:52;;;;;;;9.55;5.53;;;;;;;8.53;62.76;100050.03;5014967;28;20077;-70
2021/12/25 08:59:18;;;;;;;13.43;5.43;;;;;;;8.38;62.58;100037.78;4993841;28;20099;-70
2021/12/25 09:01:44;;;;;;;10.30;4.80;;;;;;;8.44;62.75;100040.41;4985371;28;20043;-71
2021/12/25 09:04:10;;;;;;;7.07;5.60;;;;;;;8.29;62.98;100034.22;4984237;28;20034;-70
2021/12/25 09:06:38;;;;;;;6.47;5.18;;;;;;;8.39;62.98;100044.72;5004800;28;20120;-70
2021/12/25 09:09:05;;;;;;;7.72;4.60;;;;;;;8.33;63.12;100028.16;5005773;28;20045;-71
2021/12/25 09:11:32;;;;;;;7.70;5.00;;;;;;;8.10;63.60;100020.22;4994343;28;20034;-70
2021/12/25 09:13:57;;;;;;;7.72;5.03;;;;;;;8.33;63.21;100012.47;4991089;28;20137;-69
2021/12/25 09:16:23;;;;;;;8.10;5.35;;;;;;;8.66;62.92;100049.19;4986451;28;20132;-69
2021/12/25 09:18:49;;;;;;;10.65;5.13;;;;;;;8.25;63.29;100023.78;5001138;28;20611;-69
2021/12/25 09:21:15;;;;;;;7.88;5.45;;;;;;;8.39;63.29;100010.75;5005256;28;20800;-72
2021/12/25 09:23:41;;;;;;;11.77;6.65;;;;;;;8.49;63.38;100040.44;5005525;28;20104;-68
2021/12/25 09:26:07;;;;;;;7.68;5.00;;;;;;;8.60;62.97;100011.69;4997856;28;20046;-69
2021/12/25 09:28:32;;;;;;;8.02;6.07;;;;;;;8.37;63.30;100009.88;4987327;28;20048;-68
2021/12/25 09:30:58;;;;;;;10.68;6.60;;;;;;;8.53;62.68;100005.59;5003036;28;20046;-68
2021/12/25 09:33:24;;;;;;;11.13;6.03;;;;;;;8.66;62.71;100004.75;5002878;28;20567;-69
2021/12/25 09:35:49;;;;;;;10.75;6.30;;;;;;;8.79;62.37;100015.22;5005453;28;20041;-70
2021/12/25 09:38:15;;;;;;;23.73;6.25;;;;;;;9.03;62.03;100037.88;5000248;28;20457;-72
2021/12/25 09:40:40;;;;;;;7.90;5.55;;;;;;;8.92;62.48;99993.41;4987969;28;20553;-69
2021/12/25 09:43:06;;;;;;;13.40;5.70;;;;;;;9.01;62.03;99993.41;4983287;28;20042;-69
2021/12/25 09:45:32;;;;;;;9.00;4.65;;;;;;;9.14;61.73;100009.97;4983645;28;20469;-69
2021/12/25 09:47:58;;;;;;;11.65;6.55;;;;;;;9.01;61.91;100024.81;4997429;28;20437;-72
2021/12/25 09:50:23;;;;;;;9.68;6.28;;;;;;;9.18;61.50;99990.78;5003280;28;20046;-70
2021/12/25 09:52:49;;;;;;;8.95;6.40;;;;;;;9.34;61.33;100020.44;5000309;28;20465;-70
2021/12/25 09:55:15;;;;;;;10.20;5.63;;;;;;;9.24;61.28;100005.59;4982022;28;20042;-72
2021/12/25 09:57:41;;;;;;;11.98;6.13;;;;;;;9.11;61.58;99990.75;5002242;28;20029;-70
2021/12/25 10:00:14;;;;;;;6.70;5.03;;;;;;;9.43;61.46;100007.28;5001792;28;20545;-69
2021/12/25 10:03:45;;;;;;;11.10;6.20;;;;;;;9.29;61.45;99999.50;5018930;27;20650;-68
2021/12/25 10:06:27;;;;;;;8.18;5.15;;;;;;;9.46;61.02;99980.25;5020980;28;20056;-71
2021/12/25 10:08:52;;;;;;;11.20;5.97;;;;;;;9.70;60.72;99984.53;5020767;28;20049;-69
2021/12/25 10:11:18;;;;;;;11.07;6.13;;;;;;;9.76;59.91;99971.41;5017712;28;20042;-70
2021/12/25 10:13:45;;;;;;;8.60;6.07;;;;;;;9.65;60.29;99970.59;5017764;28;20132;-69
2021/12/25 10:16:23;;;;;;;11.48;7.10;;;;;;;9.98;60.06;99972.22;5019363;28;20052;-67
2021/12/25 10:18:51;;;;;;;11.73;5.40;;;;;;;10.10;59.43;99981.75;5024349;28;20049;-67
2021/12/25 10:21:24;;;;;;;14.55;6.22;;;;;;;9.81;60.36;99964.44;5019950;28;20063;-70
2021/12/25 10:24:11;;;;;;;;;;;;;;;10.06;59.50;99962.53;5022668;28;20081;-69
2021/12/25 10:26:39;;;;;;;8.13;5.82;;;;;;;10.29;59.11;99943.22;5018521;28;19924;-68
2021/12/25 10:29:21;;;;;;;11.65;6.65;;;;;;;10.15;59.62;99956.38;5013758;28;20041;-69
2021/12/25 10:31:47;;;;;;;10.93;7.40;;;;;;;10.21;59.41;99952.84;5020807;28;20057;-67
2021/12/25 10:34:18;;;;;;;12.48;7.00;;;;;;;10.11;59.87;99942.44;5017719;28;20042;-68
2021/12/25 10:36:45;;;;;;;9.45;5.30;;;;;;;10.29;59.84;99979.94;5022580;28;20038;-68
2021/12/25 10:39:17;;;;;;;10.25;6.35;;;;;;;10.35;59.14;99938.81;5019183;28;20045;-69
2021/12/25 10:42:11;;;;;;;11.52;6.93;;;;;;;10.72;58.38;99942.91;5018390;28;20050;-67
2021/12/25 10:44:39;;;;;;;12.15;7.47;;;;;;;10.93;57.44;99932.25;5020868;28;20080;-68
2021/12/25 10:47:11;;;;;;;13.77;6.82;;;;;;;11.67;56.49;99933.19;5018331;28;20081;-69
2021/12/25 10:49:44;;;;;;;11.63;8.52;;;;;;;12.26;55.78;99955.22;5015905;28;20060;-69
2021/12/25 10:52:20;;;;;;;10.68;6.47;;;;;;;12.12;55.35;99946.66;5018378;28;20064;-68
2021/12/25 10:54:48;;;;;;;11.02;6.72;;;;;;;11.78;55.37;99933.94;5020749;28;20044;-69
2021/12/25 10:57:31;;;;;;;16.08;8.20;;;;;;;12.43;55.01;99950.59;5020063;28;20041;-68
2021/12/25 10:59:57;;;;;;;15.95;6.15;;;;;;;12.33;54.73;99954.25;5018686;28;20199;-69
2021/12/25 11:02:47;;;;;;;14.50;6.93;;;;;;;11.87;55.45;99940.81;5022153;28;20050;-71
2021/12/25 11:05:22;;;;;;;10.25;6.57;;;;;;;12.25;54.86;99916.66;5020510;28;20053;-69
2021/12/25 11:08:07;;;;;;;8.43;5.05;;;;;;;12.63;54.10;99912.56;5017349;28;20169;-68
2021/12/25 11:10:46;;;;;;;9.15;5.70;;;;;;;12.94;53.49;99920.78;5021862;28;20850;-69
2021/12/25 11:13:35;;;;;;;9.32;5.18;;;;;;;12.75;53.29;99914.97;5014732;28;20037;-69
2021/12/25 11:16:05;;;;;;;15.55;6.20;;;;;;;12.86;53.23;99920.94;5011662;28;20038;-69
2021/12/25 11:21:36;;;;;;;19.38;4.95;;;;;;;12.95;54.38;99925.19;5004376;28;20109;-72
2021/12/25 11:24:06;;;;;;;16.35;8.32;;;;;;;12.70;54.12;99903.66;5005207;28;20481;-71
2021/12/25 11:26:32;;;;;;;12.13;7.32;;;;;;;12.79;53.64;99900.88;5006441;28;20061;-70
2021/12/25 11:28:58;;;;;;;8.25;5.40;;;;;;;13.04;53.50;99892.53;5003942;28;20100;-70
2021/12/25 11:31:24;;;;;;;13.02;6.25;;;;;;;12.87;54.03;99900.72;5006927;28;20041;-69
2021/12/25 11:33:50;;;;;;;11.00;5.72;;;;;;;12.94;53.61;99904.13;5007393;28;20577;-67
2021/12/25 11:36:18;;;;;;;9.57;4.53;;;;;;;12.82;54.44;99898.19;5005627;28;20127;-70
2021/12/25 11:38:44;;;;;;;7.30;4.32;;;;;;;13.05;54.21;99913.56;5004198;28;20509;-70
2021/12/25 11:41:11;;;;;;;9.50;4.93;;;;;;;13.04;54.63;99924.13;5006512;28;20053;-70
2021/12/25 11:43:41;;;;;;;6.72;4.13;;;;;;;12.79;54.33;99902.66;5008473;28;20375;-69
2021/12/25 11:46:08;;;;;;;14.05;4.32;;;;;;;12.78;55.24;99912.31;5007322;28;20114;-69
2021/12/25 11:48:35;;;;;;;14.55;4.78;;;;;;;12.68;54.98;99915.97;5007489;28;20045;-70
2021/12/25 11:51:01;;;;;;;6.65;3.70;;;;;;;12.63;55.08;99902.03;5008513;28;20061;-71
2021/12/25 11:53:46;;;;;;;6.05;3.70;;;;;;;12.74;55.10;99926.41;5001645;28;20719;-70
2021/12/25 11:58:53;;;;;;;6.68;4.00;;;;;;;12.71;55.30;99905.38;5004502;28;20057;-71
2021/12/25 12:01:33;;;;;;;8.15;3.50;;;;;;;12.73;55.41;99900.09;5006469;28;20147;-68
2021/12/25 12:04:12;;;;;;;6.38;3.67;;;;;;;12.72;55.32;99891.34;5003841;28;20040;-68
2021/12/25 12:06:43;;;;;;;7.88;4.35;;;;;;;12.74;55.42;99893.97;5007220;28;20073;-69
2021/12/25 12:09:13;;;;;;;13.32;4.28;;;;;;;12.61;55.78;99882.75;5006003;28;20108;-67
2021/12/25 12:11:42;;;;;;;11.45;4.65;;;;;;;12.82;55.52;99885.00;5006807;28;20041;-68
2021/12/25 12:14:12;;;;;;;8.85;4.25;;;;;;;12.96;55.20;99908.47;5004394;28;20092;-68
2021/12/25 12:16:41;;;;;;;6.35;3.40;;;;;;;12.75;55.56;99883.38;5003517;28;20069;-68
2021/12/25 12:19:33;;;;;;;9.93;4.13;;;;;;;12.76;55.53;99871.09;5005262;28;21137;-71
2021/12/25 12:21:58;;;;;;;7.47;4.28;;;;;;;12.76;55.62;99879.88;5004610;28;20140;-68
2021/12/25 12:27:00;;;;;;;7.03;3.83;;;;;;;12.85;55.79;99892.00;5003468;28;20037;-69
2021/12/25 12:29:38;;;;;;;11.52;4.25;;;;;;;13.00;55.69;99914.56;5004390;28;20061;-67
2021/12/25 12:32:27;;;;;;;8.70;4.53;;;;;;;12.98;55.26;99898.78;5002255;28;20060;-69
2021/12/25 12:34:53;;;;;;;7.60;3.95;;;;;;;12.91;55.64;99891.03;5001998;28;20133;-70
2021/12/25 12:37:21;;;;;;;7.22;3.20;;;;;;;13.07;55.45;99876.69;5004857;28;20025;-69
2021/12/25 12:39:15;;;;;;;;;;;;;;;13.14;55.42;99917.81;3544625;29;2716;-69
2021/12/25 12:41:51;;;;;;;4.82;2.88;;;;;;;13.26;55.12;99911.44;5000151;28;20332;-68
2021/12/25 12:44:27;;;;;;;12.43;3.47;;;;;;;13.08;55.32;99889.81;5003803;28;20099;-69
2021/12/25 12:46:55;;;;;;;7.65;3.67;;;;;;;13.41;54.98;99905.91;5004266;28;20038;-69
2021/12/25 12:49:26;;;;;;;7.68;3.88;;;;;;;13.41;54.96;99883.94;5002931;28;20042;-69
2021/12/25 12:52:17;;;;;;;9.80;4.25;;;;;;;13.44;54.78;99886.53;5004195;28;20060;-70
2021/12/25 12:54:44;;;;;;;11.05;4.10;;;;;;;13.35;55.40;99898.13;5008808;28;20049;-68
2021/12/25 12:57:17;;;;;;;7.18;4.75;;;;;;;13.22;55.52;99891.31;5006438;28;20119;-69
2021/12/25 12:59:45;;;;;;;11.93;4.25;;;;;;;13.27;55.63;99897.34;5006109;28;20076;-68
2021/12/25 13:02:12;;;;;;;6.25;3.65;;;;;;;13.12;56.03;99885.38;5004087;28;20061;-68
2021/12/25 13:04:44;;;;;;;7.32;3.90;;;;;;;12.88;56.42;99884.06;5008550;28;20050;-71
2021/12/25 13:07:14;;;;;;;9.55;3.38;;;;;;;12.98;56.90;99905.81;5005257;28;20068;-67
2021/12/25 13:09:50;;;;;;;6.88;3.30;;;;;;;13.07;56.31;99900.38;5005281;28;20033;-69